Time;durP1;ratioP1;P1;durP2;ratioP2;P2;SDS_P1;SDS_P2;PMS_P1;PMS_P2;Temp;Humidity;BMP_temperature;BMP_pressure;BME280_temperature;BME280_humidity;BME280_pressure;Samples;Min_cycle;Max_cycle;Signal;HPM_P1;HPM_P2
2021/06/20 00:00:24;;;;;;;0.17;0.17;;;;;;;25.92;48.61;100994.13;5041342;28;20045;-51
2021/06/20 00:02:50;;;;;;;0.10;0.10;;;;;;;25.91;48.63;100993.28;5052284;28;20102;-51
2021/06/20 00:05:29;;;;;;;0.95;0.95;;;;;;;25.86;48.60;100990.25;5052124;28;20037;-48
2021/06/20 00:07:54;;;;;;;0.10;0.10;;;;;;;25.85;48.63;100996.59;5052258;28;20041;-51
2021/06/20 00:10:22;;;;;;;0.40;0.40;;;;;;;25.84;48.57;100994.94;5052156;28;20041;-52
2021/06/20 00:12:48;;;;;;;0.20;0.20;;;;;;;25.81;48.67;101003.28;5051835;28;20041;-53
2021/06/20 00:15:15;;;;;;;0.10;0.10;;;;;;;25.79;48.47;100997.22;5051953;28;20040;-49
2021/06/20 00:17:40;;;;;;;0.28;0.28;;;;;;;25.77;48.61;100999.22;5052125;28;20045;-50
2021/06/20 00:20:07;;;;;;;0.10;0.10;;;;;;;25.74;48.60;100991.50;5052168;28;20059;-48
2021/06/20 00:22:33;;;;;;;0.20;0.20;;;;;;;25.72;48.55;100993.47;5037383;28;20073;-52
2021/06/20 00:24:59;;;;;;;0.40;0.40;;;;;;;25.71;48.70;100993.63;5055821;28;20103;-49
2021/06/20 00:27:24;;;;;;;0.63;0.63;;;;;;;25.69;48.79;100993.78;5055245;28;20037;-52
2021/06/20 00:29:50;;;;;;;0.10;0.10;;;;;;;25.68;48.54;100996.63;5055426;28;20076;-62
2021/06/20 00:32:16;;;;;;;0.20;0.20;;;;;;;25.71;48.54;100997.16;5055422;28;20033;-62
2021/06/20 00:34:41;;;;;;;0.10;0.10;;;;;;;25.79;48.25;100989.19;5055102;28;20501;-61
2021/06/20 00:37:07;;;;;;;0.30;0.30;;;;;;;25.87;48.07;100996.47;5055481;28;20037;-62
2021/06/20 00:39:33;;;;;;;0.25;0.25;;;;;;;25.92;48.06;100994.97;5055451;28;20378;-62
2021/06/20 00:41:59;;;;;;;0.10;0.10;;;;;;;25.96;47.94;100992.84;5055387;28;20400;-62
2021/06/20 00:44:24;;;;;;;0.20;0.20;;;;;;;25.99;47.86;100989.84;5054840;28;20037;-61
2021/06/20 00:46:50;;;;;;;0.10;0.10;;;;;;;26.01;47.76;100990.56;5055312;28;20045;-62
2021/06/20 00:49:16;;;;;;;0.10;0.10;;;;;;;26.03;47.71;100990.38;5055245;28;20045;-62
2021/06/20 00:51:42;;;;;;;0.20;0.20;;;;;;;26.04;47.59;100997.44;5055012;28;20037;-62
2021/06/20 00:54:08;;;;;;;0.10;0.10;;;;;;;26.04;47.87;100992.06;5055123;28;20049;-62
2021/06/20 00:56:34;;;;;;;0.10;0.10;;;;;;;26.05;47.89;100991.06;5055080;28;20048;-61
2021/06/20 00:59:03;;;;;;;0.17;0.17;;;;;;;26.05;47.73;100991.91;5055598;28;20051;-62
2021/06/20 01:01:32;;;;;;;0.10;0.10;;;;;;;26.04;47.88;100981.38;5036539;28;20119;-62
2021/06/20 01:03:58;;;;;;;0.10;0.10;;;;;;;26.04;47.73;100986.72;5034992;28;20053;-62
2021/06/20 01:06:24;;;;;;;0.10;0.10;;;;;;;26.03;47.70;100985.03;5035023;28;20041;-62
2021/06/20 01:08:50;;;;;;;0.65;0.65;;;;;;;26.02;47.64;100992.22;5034927;28;20075;-62
2021/06/20 01:11:15;;;;;;;0.10;0.10;;;;;;;26.03;47.88;100985.03;5035212;28;20045;-62
2021/06/20 01:13:44;;;;;;;0.17;0.17;;;;;;;26.02;47.73;100984.19;5034537;28;20076;-61
2021/06/20 01:16:10;;;;;;;0.10;0.10;;;;;;;26.02;47.80;100989.53;5034530;28;20057;-61
2021/06/20 01:18:35;;;;;;;0.20;0.20;;;;;;;26.01;47.81;100993.22;5034805;28;20038;-61
2021/06/20 01:21:01;;;;;;;0.10;0.10;;;;;;;26.02;47.60;101002.06;5037208;28;20410;-61
2021/06/20 01:23:26;;;;;;;0.10;0.10;;;;;;;26.00;47.75;101007.59;5034357;28;20045;-61
2021/06/20 01:25:54;;;;;;;0.10;0.10;;;;;;;26.00;47.73;101006.75;5049792;28;20045;-61
2021/06/20 01:28:25;;;;;;;0.28;0.28;;;;;;;25.99;47.75;101010.41;5054488;28;20068;-61
2021/06/20 01:30:57;;;;;;;0.20;0.20;;;;;;;25.97;47.98;101010.59;5053300;28;20505;-61
2021/06/20 01:33:23;;;;;;;0.10;0.10;;;;;;;25.96;47.85;101008.06;5037594;28;20044;-61
2021/06/20 01:35:48;;;;;;;0.20;0.20;;;;;;;25.95;47.74;101011.75;5054102;28;20541;-62
2021/06/20 01:38:14;;;;;;;0.05;0.05;;;;;;;25.93;47.75;101011.88;5054352;28;20068;-62
2021/06/20 01:40:39;;;;;;;0.10;0.10;;;;;;;25.92;47.76;101010.19;5054272;28;20037;-62
2021/06/20 01:43:05;;;;;;;0.10;0.10;;;;;;;25.91;47.77;101011.22;5054155;28;20075;-62
2021/06/20 01:45:31;;;;;;;0.10;0.10;;;;;;;25.91;47.84;101009.34;5054051;28;20041;-63
2021/06/20 01:47:58;;;;;;;0.10;0.10;;;;;;;25.91;47.79;101016.56;5054035;28;20095;-63
2021/06/20 01:50:24;;;;;;;0.20;0.20;;;;;;;25.88;47.74;101009.66;5053784;28;20510;-64
2021/06/20 01:53:22;;;;;;;0.40;0.40;;;;;;;25.91;47.82;101016.56;5054019;28;20037;-63
2021/06/20 01:55:48;;;;;;;0.10;0.10;;;;;;;25.88;47.88;101015.03;5030932;28;20064;-63
2021/06/20 01:58:16;;;;;;;0.10;0.10;;;;;;;25.90;47.69;101012.19;5053927;28;20442;-63
2021/06/20 02:00:46;;;;;;;0.10;0.10;;;;;;;25.88;47.76;101012.34;5053639;28;20040;-62
2021/06/20 02:03:17;;;;;;;0.10;0.10;;;;;;;25.88;47.73;101012.34;5054024;28;20056;-63
2021/06/20 02:05:43;;;;;;;0.10;0.10;;;;;;;25.89;47.75;101008.69;5053815;28;20048;-62
2021/06/20 02:08:11;;;;;;;0.30;0.30;;;;;;;25.89;47.76;101016.72;5053777;28;20076;-62
2021/06/20 02:10:36;;;;;;;0.20;0.20;;;;;;;25.88;47.64;101017.69;5053684;28;20037;-63
2021/06/20 02:13:03;;;;;;;0.20;0.20;;;;;;;25.88;47.76;101015.03;5053349;28;20065;-63
2021/06/20 02:15:30;;;;;;;0.50;0.50;;;;;;;25.88;47.64;101017.69;5053381;28;20044;-63
2021/06/20 02:17:55;;;;;;;0.20;0.20;;;;;;;25.89;47.51;101016.72;5053748;28;20037;-63
2021/06/20 02:20:21;;;;;;;0.30;0.30;;;;;;;25.89;47.80;101022.06;5053477;28;20375;-63
2021/06/20 02:22:47;;;;;;;0.10;0.10;;;;;;;25.88;47.62;101017.69;5053507;28;20044;-63
2021/06/20 02:25:14;;;;;;;0.20;0.20;;;;;;;25.89;47.79;101014.03;5053358;28;20037;-63
2021/06/20 02:27:41;;;;;;;0.20;0.20;;;;;;;25.88;47.77;101017.69;5052312;28;20080;-63
2021/06/20 02:30:07;;;;;;;0.20;0.20;;;;;;;25.88;47.70;101025.72;5053391;28;20032;-63
2021/06/20 02:32:33;;;;;;;0.10;0.10;;;;;;;25.90;47.63;101025.59;5052490;28;20440;-62
2021/06/20 02:34:58;;;;;;;0.10;0.10;;;;;;;25.91;47.53;101021.94;5053557;28;20041;-62
2021/06/20 02:37:24;;;;;;;0.05;0.05;;;;;;;25.91;47.74;101028.09;5053284;28;20489;-63
2021/06/20 02:39:50;;;;;;;0.30;0.30;;;;;;;25.91;47.73;101025.41;5052862;28;20040;-62
2021/06/20 02:42:16;;;;;;;0.20;0.20;;;;;;;25.90;47.77;101029.09;5053365;28;20387;-62
2021/06/20 02:44:42;;;;;;;0.20;0.20;;;;;;;25.92;47.73;101037.81;5052620;28;20102;-63
2021/06/20 02:47:08;;;;;;;0.10;0.10;;;;;;;25.92;47.66;101027.09;5053082;28;20057;-62
2021/06/20 02:49:35;;;;;;;0.20;0.20;;;;;;;25.91;47.72;101025.41;5051441;28;20533;-62
2021/06/20 02:52:00;;;;;;;0.17;0.17;;;;;;;25.93;47.69;101033.31;5052695;28;20043;-61
2021/06/20 02:54:26;;;;;;;0.17;0.17;;;;;;;25.92;47.70;101037.81;5052948;28;20045;-61
2021/06/20 02:56:52;;;;;;;0.10;0.10;;;;;;;25.94;47.63;101036.81;5053234;28;20037;-62
2021/06/20 02:59:17;;;;;;;0.10;0.10;;;;;;;25.95;47.63;101030.50;5053186;28;20179;-61
2021/06/20 03:01:43;;;;;;;0.15;0.15;;;;;;;25.95;47.69;101030.50;5053130;28;20045;-62
2021/06/20 03:04:10;;;;;;;0.22;0.22;;;;;;;25.94;47.61;101028.78;5052683;28;20090;-61
2021/06/20 03:06:35;;;;;;;0.15;0.15;;;;;;;25.94;47.57;101028.78;5052827;28;20071;-61
2021/06/20 03:09:01;;;;;;;0.20;0.20;;;;;;;25.93;47.69;101022.59;5052776;28;20090;-62
2021/06/20 03:11:26;;;;;;;0.10;0.10;;;;;;;25.85;47.76;101014.50;5052465;28;20037;-62
2021/06/20 03:13:52;;;;;;;0.00;0.00;;;;;;;25.92;47.69;101027.09;5052579;28;20060;-62
2021/06/20 03:16:19;;;;;;;0.28;0.28;;;;;;;25.91;47.64;101025.41;5052479;28;20394;-63
2021/06/20 03:18:45;;;;;;;0.10;0.10;;;;;;;25.92;47.70;101019.06;5053035;28;20068;-63
2021/06/20 03:21:11;;;;;;;0.10;0.10;;;;;;;25.94;47.83;101008.22;5052665;28;20068;-63
2021/06/20 03:23:37;;;;;;;0.10;0.10;;;;;;;25.96;47.65;101016.09;5052574;28;20382;-62
2021/06/20 03:26:02;;;;;;;0.10;0.10;;;;;;;25.99;47.45;101023.81;5052642;28;20390;-63
2021/06/20 03:28:28;;;;;;;0.10;0.10;;;;;;;25.98;47.57;101014.94;5053084;28;20045;-62
2021/06/20 03:30:54;;;;;;;0.85;0.22;;;;;;;26.00;47.62;101021.00;5052893;28;20063;-62
2021/06/20 03:33:19;;;;;;;1.67;1.55;;;;;;;26.02;47.50;101023.50;5052312;28;20052;-62
2021/06/20 03:35:45;;;;;;;0.20;0.20;;;;;;;26.04;47.40;101024.19;5052493;28;20037;-63
2021/06/20 03:38:10;;;;;;;0.10;0.10;;;;;;;26.05;47.57;101023.19;5052524;28;20068;-63
2021/06/20 03:40:36;;;;;;;0.32;0.32;;;;;;;26.07;47.63;101023.88;5052147;28;20044;-62
2021/06/20 03:43:02;;;;;;;0.17;0.17;;;;;;;26.08;47.67;101025.56;5052142;28;20036;-62
2021/06/20 03:45:28;;;;;;;0.20;0.20;;;;;;;26.10;47.44;101015.53;5052465;28;20047;-62
2021/06/20 03:47:53;;;;;;;0.10;0.10;;;;;;;26.11;47.36;101020.72;5052722;28;20037;-61
2021/06/20 03:50:19;;;;;;;0.10;0.10;;;;;;;26.12;47.46;101022.41;5048302;28;20048;-62
2021/06/20 03:52:45;;;;;;;0.73;0.73;;;;;;;26.14;47.43;101019.59;5046728;28;20045;-62
2021/06/20 03:55:11;;;;;;;0.10;0.10;;;;;;;26.07;47.43;100997.13;5052033;28;20041;-62
2021/06/20 03:57:37;;;;;;;0.20;0.20;;;;;;;26.17;47.58;101016.63;5058012;28;20166;-62
2021/06/20 04:00:04;;;;;;;0.10;0.10;;;;;;;26.18;47.42;101010.25;5058893;28;20502;-61
2021/06/20 04:02:30;;;;;;;0.10;0.10;;;;;;;26.20;47.35;101016.31;5059173;28;20044;-63
2021/06/20 04:04:56;;;;;;;0.22;0.22;;;;;;;26.20;47.48;101010.97;5059090;28;20094;-62
2021/06/20 04:07:21;;;;;;;0.20;0.20;;;;;;;26.22;47.38;101017.84;5056735;28;20055;-62
2021/06/20 04:09:47;;;;;;;0.10;0.10;;;;;;;26.24;47.42;101004.31;5055993;28;20033;-62
2021/06/20 04:12:14;;;;;;;0.20;0.20;;;;;;;26.25;47.33;101011.31;5055775;28;20041;-62
2021/06/20 04:14:40;;;;;;;0.10;0.10;;;;;;;26.26;47.63;101005.81;5052598;28;20057;-62
2021/06/20 04:17:06;;;;;;;0.50;0.50;;;;;;;26.28;47.51;101011.00;5035978;28;20088;-62
2021/06/20 04:19:31;;;;;;;0.65;0.65;;;;;;;26.29;47.62;101007.34;5035905;28;20045;-62
2021/06/20 04:21:57;;;;;;;0.57;0.30;;;;;;;26.31;47.53;101013.38;5035749;28;20053;-62
2021/06/20 04:24:23;;;;;;;0.20;0.20;;;;;;;26.34;47.42;101007.72;5035560;28;20053;-62
2021/06/20 04:26:48;;;;;;;0.10;0.10;;;;;;;26.34;47.54;101000.50;5035827;28;20052;-60
2021/06/20 04:29:14;;;;;;;0.20;0.20;;;;;;;26.36;47.37;100997.69;5035744;28;20525;-60
2021/06/20 04:31:40;;;;;;;0.73;0.73;;;;;;;26.38;47.52;101006.41;5036473;28;20045;-60
2021/06/20 04:34:05;;;;;;;0.17;0.17;;;;;;;26.38;47.54;101001.88;5035552;28;20049;-60
2021/06/20 04:36:31;;;;;;;0.10;0.10;;;;;;;26.38;47.68;101001.03;5035554;28;20045;-59
2021/06/20 04:38:57;;;;;;;0.10;0.10;;;;;;;26.40;47.66;101009.78;5035597;28;20045;-59
2021/06/20 04:41:23;;;;;;;0.10;0.10;;;;;;;26.39;47.58;101008.94;5035485;28;20080;-60
2021/06/20 04:46:29;;;;;;;1.05;0.47;;;;;;;26.41;47.70;101006.91;5036150;28;20037;-54
2021/06/20 04:48:56;;;;;;;0.20;0.20;;;;;;;26.41;47.55;100998.03;5035684;28;20046;-56
2021/06/20 04:51:22;;;;;;;0.32;0.32;;;;;;;26.41;47.78;101000.72;5035299;28;20042;-55
2021/06/20 04:53:48;;;;;;;0.10;0.10;;;;;;;26.42;47.86;100992.53;5034810;28;20050;-55
2021/06/20 04:56:13;;;;;;;0.20;0.20;;;;;;;26.45;47.58;100995.88;5035220;28;20175;-50
2021/06/20 04:58:40;;;;;;;0.17;0.17;;;;;;;26.44;47.70;100987.00;5035194;28;20044;-52
2021/06/20 05:01:06;;;;;;;0.30;0.30;;;;;;;26.46;47.90;100994.91;5035057;28;20045;-53
2021/06/20 05:03:32;;;;;;;0.20;0.20;;;;;;;26.48;47.82;100991.06;5034708;28;20045;-55
2021/06/20 05:05:58;;;;;;;0.30;0.30;;;;;;;26.50;47.79;100996.28;5034701;28;20529;-56
2021/06/20 05:08:23;;;;;;;0.40;0.40;;;;;;;26.51;47.59;100996.09;5034598;28;20044;-55
2021/06/20 05:10:55;;;;;;;0.10;0.10;;;;;;;26.52;47.85;100992.44;5034937;28;20042;-56
2021/06/20 05:13:21;;;;;;;0.65;0.65;;;;;;;26.55;47.80;101001.97;5034594;28;20147;-56
2021/06/20 05:15:47;;;;;;;0.10;0.10;;;;;;;26.52;47.73;100997.78;5034878;28;20072;-51
2021/06/20 05:18:12;;;;;;;0.25;0.25;;;;;;;26.56;47.70;100996.47;5035200;28;20498;-55
2021/06/20 05:20:39;;;;;;;0.20;0.20;;;;;;;26.57;47.84;101000.00;5036759;28;20404;-54
2021/06/20 05:23:04;;;;;;;0.13;0.13;;;;;;;26.57;47.88;101003.50;5043471;28;20511;-51
2021/06/20 05:25:30;;;;;;;0.15;0.15;;;;;;;26.56;47.79;100999.16;5054267;28;20036;-50
2021/06/20 05:27:56;;;;;;;0.55;0.20;;;;;;;26.57;47.91;100997.31;5054322;28;20048;-53
2021/06/20 05:30:22;;;;;;;0.10;0.10;;;;;;;26.56;47.96;100996.47;5054015;28;20102;-59
2021/06/20 05:32:53;;;;;;;1.02;0.45;;;;;;;26.56;47.81;101004.50;5052117;28;20044;-46
2021/06/20 05:35:18;;;;;;;0.10;0.10;;;;;;;26.53;47.93;101002.16;5053701;28;20409;-48
2021/06/20 05:37:44;;;;;;;0.10;0.10;;;;;;;26.52;48.20;100997.78;5046552;28;20029;-49
2021/06/20 05:40:10;;;;;;;0.10;0.10;;;;;;;26.52;48.03;100992.44;5053281;28;20075;-52
2021/06/20 05:42:36;;;;;;;0.10;0.10;;;;;;;26.56;48.03;101004.50;5053292;28;20075;-57
2021/06/20 05:45:01;;;;;;;0.15;0.15;;;;;;;26.60;48.15;101003.19;5052897;28;20048;-49
2021/06/20 05:47:27;;;;;;;0.20;0.20;;;;;;;26.58;47.73;100985.56;5053235;28;20127;-56
2021/06/20 05:49:54;;;;;;;0.20;0.20;;;;;;;26.71;47.75;100994.88;5053288;28;20086;-58
2021/06/20 05:52:20;;;;;;;0.10;0.10;;;;;;;26.76;47.60;100995.25;5038652;28;20033;-49
2021/06/20 05:54:50;;;;;;;0.20;0.20;;;;;;;26.78;47.74;100987.88;5033180;28;20052;-52
2021/06/20 05:57:16;;;;;;;;;;;;;;;26.90;47.48;100993.78;5051930;28;20045;-49
2021/06/20 05:59:41;;;;;;;0.05;0.05;;;;;;;26.91;47.48;100992.81;5053034;28;19979;-57
2021/06/20 06:02:07;;;;;;;0.28;0.28;;;;;;;26.93;47.41;100988.97;5052666;28;20036;-54
2021/06/20 06:04:32;;;;;;;0.10;0.10;;;;;;;26.98;47.55;100993.00;5052887;28;20033;-54
2021/06/20 06:06:58;;;;;;;0.10;0.10;;;;;;;27.01;47.51;100988.16;5052710;28;20060;-52
2021/06/20 06:09:24;;;;;;;0.10;0.10;;;;;;;27.05;47.52;100991.34;5052501;28;20037;-51
2021/06/20 06:11:50;;;;;;;0.10;0.10;;;;;;;27.07;47.38;100992.03;5049374;28;20106;-56
2021/06/20 06:14:16;;;;;;;0.03;0.03;;;;;;;27.11;47.47;100994.22;5040999;28;20049;-50
2021/06/20 06:16:42;;;;;;;0.00;0.00;;;;;;;27.13;47.36;100986.84;5032516;28;20571;-52
2021/06/20 06:19:09;;;;;;;0.20;0.20;;;;;;;27.16;47.33;100989.19;5032819;28;20502;-50
2021/06/20 06:21:35;;;;;;;2.03;0.77;;;;;;;27.20;47.30;100989.72;5035043;28;20152;-54
2021/06/20 06:24:01;;;;;;;0.13;0.13;;;;;;;27.23;47.56;100998.28;5032711;28;20033;-57
2021/06/20 06:26:27;;;;;;;0.10;0.10;;;;;;;27.25;47.49;100993.59;5041688;28;20390;-57
2021/06/20 06:28:52;;;;;;;0.10;0.10;;;;;;;27.29;47.38;100991.44;5052267;28;20044;-50
2021/06/20 06:31:21;;;;;;;0.20;0.20;;;;;;;27.32;47.47;100991.09;5051824;28;20041;-56
2021/06/20 06:33:46;;;;;;;0.10;0.10;;;;;;;27.35;47.55;100993.47;5048737;28;20111;-53
2021/06/20 06:36:12;;;;;;;0.10;0.10;;;;;;;27.37;47.51;100991.44;5043484;28;20402;-55
2021/06/20 06:38:37;;;;;;;0.08;0.08;;;;;;;27.43;47.48;100988.09;5030257;28;20049;-51
2021/06/20 06:41:03;;;;;;;0.10;0.10;;;;;;;27.42;47.26;100987.25;5029231;28;20045;-53
2021/06/20 06:43:28;;;;;;;0.30;0.30;;;;;;;27.39;47.31;100987.59;5038965;28;20409;-50
2021/06/20 06:45:54;;;;;;;0.00;0.00;;;;;;;27.39;47.68;101001.00;5032325;28;20054;-51
2021/06/20 06:48:20;;;;;;;0.10;0.10;;;;;;;27.35;47.81;100990.78;5032156;28;20044;-50
2021/06/20 06:50:45;;;;;;;0.10;0.10;;;;;;;27.32;47.72;100991.09;5032126;28;20044;-50
2021/06/20 06:53:11;;;;;;;0.20;0.20;;;;;;;27.31;47.73;100992.09;5031972;28;20793;-51
2021/06/20 06:55:37;;;;;;;0.00;0.00;;;;;;;27.29;48.01;100986.88;5030799;28;20041;-49
2021/06/20 06:58:03;;;;;;;0.10;0.10;;;;;;;27.30;47.94;100985.06;5029801;28;20128;-51
2021/06/20 07:00:29;;;;;;;0.08;0.08;;;;;;;27.32;48.04;100977.69;5012052;28;20041;-49
2021/06/20 07:02:55;;;;;;;0.10;0.10;;;;;;;27.29;48.00;100970.78;5029402;28;20068;-47
2021/06/20 07:05:20;;;;;;;0.10;0.10;;;;;;;27.30;47.81;100985.06;5029784;28;20033;-48
2021/06/20 07:07:46;;;;;;;0.10;0.10;;;;;;;27.31;48.05;100987.59;5029755;28;20061;-47
2021/06/20 07:10:12;;;;;;;0.10;0.10;;;;;;;27.31;47.88;100981.38;5029889;28;20064;-48
2021/06/20 07:12:38;;;;;;;0.10;0.10;;;;;;;27.32;48.08;100988.44;5031784;28;20506;-48
2021/06/20 07:15:05;;;;;;;0.20;0.20;;;;;;;27.33;47.80;100977.50;5031486;28;20056;-49
2021/06/20 07:17:32;;;;;;;0.20;0.20;;;;;;;27.35;48.00;100980.03;5032054;28;20119;-49
2021/06/20 07:19:57;;;;;;;0.00;0.00;;;;;;;27.36;47.77;100979.88;5031935;28;20040;-52
2021/06/20 07:22:23;;;;;;;0.10;0.10;;;;;;;27.38;47.80;100979.72;5035611;28;20033;-48
2021/06/20 07:24:49;;;;;;;0.00;0.00;;;;;;;27.40;47.61;100970.50;5040416;28;20040;-50
2021/06/20 07:27:15;;;;;;;0.10;0.10;;;;;;;27.42;47.97;100967.66;5051715;28;20048;-50
2021/06/20 07:29:41;;;;;;;0.10;0.10;;;;;;;27.47;48.03;100976.06;5051415;28;20382;-57
2021/06/20 07:32:07;;;;;;;0.10;0.10;;;;;;;27.49;47.80;100982.09;5051835;28;20043;-54
2021/06/20 07:34:33;;;;;;;0.10;0.10;;;;;;;27.52;47.80;100976.41;5066706;28;20135;-56
2021/06/20 07:37:00;;;;;;;0.00;0.00;;;;;;;27.56;47.50;100977.75;5074456;28;20094;-54
2021/06/20 07:39:25;;;;;;;0.10;0.10;;;;;;;27.61;47.74;100977.25;5074396;28;20044;-53
2021/06/20 07:41:51;;;;;;;0.10;0.10;;;;;;;27.64;47.39;100976.94;5074084;28;20040;-55
2021/06/20 07:44:17;;;;;;;0.00;0.00;;;;;;;27.65;47.43;100971.38;5072462;28;20448;-55
2021/06/20 07:46:42;;;;;;;0.20;0.20;;;;;;;27.64;47.52;100976.94;5073790;28;20041;-55
2021/06/20 07:49:08;;;;;;;0.10;0.10;;;;;;;27.61;47.80;100967.38;5073775;28;20041;-56
2021/06/20 07:51:34;;;;;;;0.10;0.10;;;;;;;27.64;47.67;100969.72;5074138;28;20044;-55
2021/06/20 07:53:59;;;;;;;0.00;0.00;;;;;;;27.67;47.69;100969.38;5073735;28;20048;-54
2021/06/20 07:56:25;;;;;;;2.72;0.47;;;;;;;27.67;47.61;100969.38;5072976;28;20044;-57
2021/06/20 07:58:51;;;;;;;0.10;0.10;;;;;;;27.69;47.79;100970.03;5074699;28;20482;-57
2021/06/20 08:01:16;;;;;;;0.10;0.10;;;;;;;27.72;47.72;100969.72;5075583;28;20036;-57
2021/06/20 08:03:42;;;;;;;0.32;0.32;;;;;;;27.73;47.64;100967.88;5075648;28;20040;-54
2021/06/20 08:06:08;;;;;;;0.20;0.20;;;;;;;27.75;47.66;100960.47;5075861;28;20051;-56
2021/06/20 08:08:33;;;;;;;0.20;0.20;;;;;;;27.77;47.41;100962.00;5073871;28;20441;-56
2021/06/20 08:11:01;;;;;;;0.00;0.00;;;;;;;27.78;47.57;100955.59;5073829;28;20044;-56
2021/06/20 08:13:26;;;;;;;0.00;0.00;;;;;;;27.79;47.51;100951.94;5073228;28;20509;-55
2021/06/20 08:15:52;;;;;;;0.10;0.10;;;;;;;27.81;47.53;100959.81;5073800;28;20040;-57
2021/06/20 08:18:17;;;;;;;0.20;0.20;;;;;;;27.82;47.77;100967.69;5073741;28;20048;-56
2021/06/20 08:20:43;;;;;;;0.10;0.10;;;;;;;27.83;47.30;100958.66;5073904;28;20040;-56
2021/06/20 08:23:09;;;;;;;0.10;0.10;;;;;;;27.85;47.36;100961.16;5075481;28;20045;-56
2021/06/20 08:25:34;;;;;;;0.10;0.10;;;;;;;27.85;47.50;100962.00;5075866;28;20521;-56
2021/06/20 08:28:00;;;;;;;0.10;0.10;;;;;;;27.88;47.37;100960.81;5075831;28;20040;-52
2021/06/20 08:30:26;;;;;;;0.22;0.22;;;;;;;27.90;47.52;100959.66;5075547;28;20040;-55
2021/06/20 08:32:51;;;;;;;0.15;0.15;;;;;;;27.92;47.44;100952.25;5075539;28;20043;-55
2021/06/20 08:35:19;;;;;;;0.10;0.10;;;;;;;27.94;47.33;100952.91;5075405;28;20398;-55
2021/06/20 08:37:45;;;;;;;0.10;0.10;;;;;;;27.93;47.61;100959.31;5075858;28;20047;-54
2021/06/20 08:40:10;;;;;;;0.20;0.20;;;;;;;27.97;47.28;100958.97;5076183;28;20044;-56
2021/06/20 08:42:36;;;;;;;0.10;0.10;;;;;;;27.99;47.24;100954.25;5074603;28;20032;-56
2021/06/20 08:45:03;;;;;;;0.10;0.10;;;;;;;28.00;47.40;100954.09;5076279;28;20037;-57
2021/06/20 08:47:29;;;;;;;0.00;0.00;;;;;;;28.03;47.59;100960.97;5075481;28;20044;-55
2021/06/20 08:49:54;;;;;;;0.10;0.10;;;;;;;28.03;47.17;100952.91;5075483;28;20044;-57
2021/06/20 08:52:21;;;;;;;0.10;0.10;;;;;;;28.04;47.20;100957.28;5075422;28;20413;-55
2021/06/20 08:55:03;;;;;;;0.10;0.10;;;;;;;28.05;47.52;100950.88;5075329;28;20055;-56
2021/06/20 08:57:33;;;;;;;0.00;0.00;;;;;;;28.07;47.55;100938.19;5075344;28;20051;-57
2021/06/20 08:59:59;;;;;;;0.20;0.20;;;;;;;28.09;47.16;100946.91;5075271;28;20402;-57
2021/06/20 09:02:26;;;;;;;0.00;0.00;;;;;;;28.10;47.24;100943.22;5075003;28;20044;-56
2021/06/20 09:04:59;;;;;;;0.00;0.00;;;;;;;28.12;47.13;100938.50;5075082;28;20115;-56
2021/06/20 09:07:34;;;;;;;0.17;0.17;;;;;;;28.14;47.18;100931.13;5075230;28;20133;-58
2021/06/20 09:10:13;;;;;;;0.10;0.10;;;;;;;28.18;47.20;100935.13;5074961;28;20087;-55
2021/06/20 09:12:45;;;;;;;0.00;0.00;;;;;;;28.18;47.50;100924.38;5074794;28;20140;-55
2021/06/20 09:15:12;;;;;;;0.10;0.10;;;;;;;28.18;47.36;100924.38;5061657;28;20106;-57
2021/06/20 09:17:38;;;;;;;0.00;0.00;;;;;;;28.20;47.44;100925.06;5048249;28;20048;-57
2021/06/20 09:20:04;;;;;;;0.10;0.10;;;;;;;28.22;47.30;100921.19;5048395;28;20045;-56
2021/06/20 09:22:30;;;;;;;0.10;0.10;;;;;;;28.25;47.20;100920.00;5046206;28;20079;-57
2021/06/20 09:25:07;;;;;;;0.00;0.00;;;;;;;28.27;47.19;100913.44;5033638;28;20455;-57
2021/06/20 09:27:33;;;;;;;0.00;0.00;;;;;;;28.29;47.43;100913.28;5034849;28;20079;-57
2021/06/20 09:30:14;;;;;;;0.20;0.20;;;;;;;28.30;47.02;100910.44;5034484;28;20042;-57
2021/06/20 09:32:56;;;;;;;0.00;0.00;;;;;;;28.34;47.23;100908.19;5033589;28;20048;-57
2021/06/20 09:35:22;;;;;;;0.10;0.10;;;;;;;28.34;47.00;100900.16;5034937;28;20122;-56
2021/06/20 09:37:52;;;;;;;0.10;0.10;;;;;;;28.36;47.10;100890.06;5034791;28;20049;-57
2021/06/20 09:40:18;;;;;;;;;;;;;;;28.41;47.04;100895.75;5035564;28;20034;-57
2021/06/20 09:42:44;;;;;;;0.15;0.15;;;;;;;28.40;47.14;100891.41;5034604;28;20444;-55
2021/06/20 09:45:10;;;;;;;0.00;0.00;;;;;;;28.40;46.90;100897.59;5034280;28;20056;-57
2021/06/20 09:47:40;;;;;;;0.13;0.13;;;;;;;28.42;47.32;100892.06;5034557;28;20046;-56
2021/06/20 09:50:09;;;;;;;0.00;0.00;;;;;;;28.43;47.24;100891.06;5036576;28;20048;-57
2021/06/20 09:52:36;;;;;;;0.10;0.10;;;;;;;28.44;47.16;100895.41;5049667;28;20049;-57
2021/06/20 09:55:12;;;;;;;0.08;0.08;;;;;;;28.47;47.24;100880.81;5033018;28;20456;-57
2021/06/20 09:57:41;;;;;;;0.20;0.20;;;;;;;28.50;47.34;100883.16;5034446;28;20069;-58
2021/06/20 10:00:07;;;;;;;0.00;0.00;;;;;;;28.51;47.11;100872.19;5033995;28;20116;-57
2021/06/20 10:02:41;;;;;;;0.10;0.10;;;;;;;28.54;47.10;100879.91;5033985;28;20091;-57
2021/06/20 10:05:08;;;;;;;0.10;0.10;;;;;;;28.54;47.30;100871.84;5033813;28;20533;-57
2021/06/20 10:07:34;;;;;;;0.10;0.10;;;;;;;28.56;47.33;100874.38;5033869;28;20044;-57
2021/06/20 10:10:00;;;;;;;0.00;0.00;;;;;;;28.58;46.91;100873.19;5038525;28;20102;-57
2021/06/20 10:12:27;;;;;;;0.10;0.10;;;;;;;28.60;47.01;100884.59;5050243;28;20119;-57
2021/06/20 10:14:53;;;;;;;0.05;0.05;;;;;;;28.61;47.05;100872.81;5049615;28;20078;-57
2021/06/20 10:17:35;;;;;;;0.10;0.10;;;;;;;28.64;47.26;100869.78;5027774;28;20046;-58
2021/06/20 10:20:04;;;;;;;0.10;0.10;;;;;;;28.65;47.06;100863.41;5041904;28;20049;-58
2021/06/20 10:22:40;;;;;;;0.10;0.10;;;;;;;28.68;46.90;100856.88;5053327;28;20068;-57
2021/06/20 10:25:11;;;;;;;0.10;0.10;;;;;;;28.68;47.03;100860.41;5034001;28;20049;-57
2021/06/20 10:27:43;;;;;;;0.20;0.20;;;;;;;28.70;47.03;100852.13;5034215;28;20041;-57
2021/06/20 10:30:11;;;;;;;0.10;0.10;;;;;;;28.72;46.90;100853.66;5054137;28;20048;-57
2021/06/20 10:32:42;;;;;;;0.10;0.10;;;;;;;28.74;46.86;100850.78;5049658;28;20045;-57
2021/06/20 10:35:09;;;;;;;0.20;0.20;;;;;;;28.76;47.07;100849.56;5039697;28;20493;-58
2021/06/20 10:37:37;;;;;;;0.10;0.10;;;;;;;28.77;47.04;100845.88;5046311;28;20041;-57
2021/06/20 10:40:05;;;;;;;0.10;0.10;;;;;;;28.80;47.00;100848.22;5033199;28;20123;-58
2021/06/20 10:42:37;;;;;;;0.10;0.10;;;;;;;28.82;46.86;100848.06;5033175;28;20041;-58
2021/06/20 10:45:04;;;;;;;0.10;0.10;;;;;;;28.85;47.22;100847.69;5033186;28;20069;-57
2021/06/20 10:47:31;;;;;;;0.00;0.00;;;;;;;28.85;47.22;100845.00;5033131;28;20128;-57
2021/06/20 10:50:01;;;;;;;0.10;0.10;;;;;;;28.88;47.25;100840.09;5032852;28;20089;-58
2021/06/20 10:52:27;;;;;;;0.10;0.10;;;;;;;28.90;47.13;100845.28;5039970;28;20482;-40
2021/06/20 10:55:07;;;;;;;0.10;0.10;;;;;;;28.95;46.97;100838.38;5036311;28;20052;-39
2021/06/20 10:57:42;;;;;;;0.10;0.10;;;;;;;28.99;46.67;100838.03;5045286;28;20041;-39
2021/06/20 11:00:08;;;;;;;0.17;0.17;;;;;;;29.02;46.87;100833.13;5042798;28;20102;-39
2021/06/20 11:02:34;;;;;;;0.00;0.00;;;;;;;29.06;46.90;100844.38;5048924;28;20045;-40
2021/06/20 11:05:00;;;;;;;0.28;0.28;;;;;;;29.08;46.77;100826.19;5042389;28;20044;-39
2021/06/20 11:07:28;;;;;;;0.03;0.03;;;;;;;29.12;46.50;100825.66;5043043;28;20033;-40
2021/06/20 11:09:56;;;;;;;0.10;0.10;;;;;;;29.18;46.49;100826.78;5028818;28;20076;-49
2021/06/20 11:12:22;;;;;;;0.00;0.00;;;;;;;29.23;46.37;100824.38;5046446;28;20037;-42
2021/06/20 11:14:49;;;;;;;0.10;0.10;;;;;;;29.23;46.46;100818.97;5042881;28;20100;-41
2021/06/20 11:17:15;;;;;;;0.10;0.10;;;;;;;29.29;46.46;100818.28;5046662;28;20053;-40
2021/06/20 11:19:41;;;;;;;0.10;0.10;;;;;;;29.34;46.01;100819.44;5042033;28;20490;-40
2021/06/20 11:22:08;;;;;;;0.08;0.08;;;;;;;29.37;46.26;100815.53;5035288;28;20037;-40
2021/06/20 11:24:38;;;;;;;0.65;0.45;;;;;;;29.39;46.24;100814.34;5037012;28;20399;-39
2021/06/20 11:27:14;;;;;;;0.10;0.10;;;;;;;29.46;46.10;100811.75;5050688;28;20132;-41